Search for airport 
image banner adimage banner adimage banner ad
image banner ad

8IA0 - Unity Healthcare

Located in Muscatine, United States

ICAO - 8IA0, IATA -

Data provided by Airmate  

General information

Coordinates: N41°26'1" W91°3'15"
Elevation is 633 feet MSL.
Magnetic variation is 01° East
View others Airports in Iowa

Operational data

Special qualification required
Current time UTC:
Current local time:
Weather at : KMUT - Muscatine Muni ( 11 km )
METAR: KMUT 181655Z AUTO VRB03KT 10SM CLR 29/23 A2982 RMK AO2
View NOTAMs / SUP AIP / TFR affecting this airport [VIEW]
Communications frequencies: [VIEW]

Runways:

Airport contact information

Address: Muscatine United States

Satellite view of 8IA0